Time;durP1;ratioP1;P1;durP2;ratioP2;P2;SDS_P1;SDS_P2;PMS_P1;PMS_P2;Temp;Humidity;BMP_temperature;BMP_pressure;BME280_temperature;BME280_humidity;BME280_pressure;Samples;Min_cycle;Max_cycle;Signal;HPM_P1;HPM_P2
2021/09/01 00:02:23;;;;;;;9.67;7.77;;;12.50;99.90;;;;;;4996964;28;20238;-89
2021/09/01 00:04:48;;;;;;;9.27;7.20;;;12.50;99.90;;;;;;4996930;28;20186;-89
2021/09/01 00:07:14;;;;;;;9.90;7.30;;;12.50;99.90;;;;;;4997324;28;20191;-89
2021/09/01 00:09:40;;;;;;;10.30;8.20;;;12.50;99.90;;;;;;4996894;28;20202;-89
2021/09/01 00:12:06;;;;;;;10.73;8.40;;;12.50;99.90;;;;;;4996787;28;20190;-89
2021/09/01 00:14:34;;;;;;;10.00;8.27;;;12.50;99.90;;;;;;4996582;28;20211;-88
2021/09/01 00:17:00;;;;;;;10.83;8.43;;;12.50;99.90;;;;;;4996875;28;20251;-88
2021/09/01 00:19:26;;;;;;;11.90;8.57;;;12.50;99.90;;;;;;5007561;28;20187;-89
2021/09/01 00:21:52;;;;;;;9.83;8.33;;;12.50;99.90;;;;;;5017889;28;20184;-88
2021/09/01 00:24:17;;;;;;;12.87;9.37;;;12.50;99.90;;;;;;5005502;28;20229;-88
2021/09/01 00:26:43;;;;;;;11.83;8.63;;;12.50;99.90;;;;;;4997949;28;20176;-88
2021/09/01 00:29:10;;;;;;;8.67;7.77;;;12.50;99.90;;;;;;4996688;28;20291;-88
2021/09/01 00:31:36;;;;;;;10.23;8.80;;;12.50;99.90;;;;;;4997877;28;20182;-88
2021/09/01 00:34:02;;;;;;;9.60;8.07;;;12.50;99.90;;;;;;4996718;28;20216;-88
2021/09/01 00:36:28;;;;;;;10.23;8.47;;;12.50;99.90;;;;;;4997283;28;20251;-88
2021/09/01 00:38:54;;;;;;;11.07;9.53;;;12.50;99.90;;;;;;4996872;28;20543;-88
2021/09/01 00:41:22;;;;;;;12.37;9.97;;;12.50;99.90;;;;;;4996637;28;20179;-88
2021/09/01 00:43:51;;;;;;;12.03;8.63;;;12.50;99.90;;;;;;4996035;28;20183;-88
2021/09/01 00:46:17;;;;;;;12.77;9.87;;;12.50;99.90;;;;;;4996833;28;20184;-88
2021/09/01 00:48:43;;;;;;;11.17;9.33;;;12.50;99.90;;;;;;4997634;28;20199;-88
2021/09/01 00:51:10;;;;;;;10.13;8.93;;;12.50;99.90;;;;;;4996473;28;20270;-89
2021/09/01 00:53:44;;;;;;;11.43;9.27;;;12.50;99.90;;;;;;4997277;28;20176;-88
2021/09/01 00:56:18;;;;;;;14.07;10.20;;;12.50;99.90;;;;;;5000300;28;20179;-88
2021/09/01 00:58:49;;;;;;;11.87;9.77;;;12.50;99.90;;;;;;5004709;28;20199;-88
2021/09/01 01:01:16;;;;;;;13.23;10.87;;;12.50;99.90;;;;;;4996183;28;20630;-88
2021/09/01 01:03:48;;;;;;;10.73;8.37;;;12.40;99.90;;;;;;4997176;28;20179;-88
2021/09/01 01:06:16;;;;;;;9.70;7.90;;;12.40;99.90;;;;;;4996391;28;20219;-88
2021/09/01 01:08:41;;;;;;;12.40;8.33;;;12.40;99.90;;;;;;4996311;28;20199;-88
2021/09/01 01:11:12;;;;;;;11.17;9.10;;;12.40;99.90;;;;;;4995817;28;20546;-88
2021/09/01 01:13:38;;;;;;;13.07;9.70;;;12.40;99.90;;;;;;4995403;28;20668;-88
2021/09/01 01:16:05;;;;;;;10.07;8.47;;;12.40;99.90;;;;;;4996371;28;20210;-88
2021/09/01 01:18:30;;;;;;;10.17;8.70;;;12.40;99.90;;;;;;4995885;28;20558;-88
2021/09/01 01:20:56;;;;;;;10.67;9.10;;;12.40;99.90;;;;;;4995865;28;20176;-88
2021/09/01 01:23:24;;;;;;;11.83;8.93;;;12.40;99.90;;;;;;4995426;28;20203;-89
2021/09/01 01:25:53;;;;;;;10.03;8.47;;;12.50;99.90;;;;;;4995736;28;20183;-89
2021/09/01 01:28:19;;;;;;;9.53;8.53;;;12.40;99.90;;;;;;4996058;28;20206;-88
2021/09/01 01:30:45;;;;;;;10.77;8.67;;;12.40;99.90;;;;;;5006500;28;20593;-88
2021/09/01 01:33:13;;;;;;;10.73;8.97;;;12.40;99.90;;;;;;4996146;28;20275;-88
2021/09/01 01:35:42;;;;;;;10.60;8.93;;;12.50;99.90;;;;;;4996593;28;20604;-88
2021/09/01 01:38:13;;;;;;;11.33;8.60;;;12.50;99.90;;;;;;4997350;28;20187;-88
2021/09/01 01:40:40;;;;;;;14.33;10.67;;;12.40;99.90;;;;;;4995682;28;20163;-89
2021/09/01 01:43:06;;;;;;;16.70;12.60;;;12.40;99.90;;;;;;4995859;28;20225;-89
2021/09/01 01:45:41;;;;;;;12.57;9.63;;;12.40;99.90;;;;;;4997094;28;20182;-88
2021/09/01 01:48:09;;;;;;;12.30;8.87;;;12.40;99.90;;;;;;4995457;28;20207;-88
2021/09/01 01:50:39;;;;;;;11.73;9.00;;;12.40;99.90;;;;;;4995592;28;20179;-88
2021/09/01 01:53:05;;;;;;;12.73;9.40;;;12.40;99.90;;;;;;4997345;28;20190;-88
2021/09/01 01:55:32;;;;;;;13.77;8.73;;;12.40;99.90;;;;;;4996274;28;20390;-88
2021/09/01 01:57:57;;;;;;;11.33;9.43;;;12.40;99.90;;;;;;4995807;28;20172;-88
2021/09/01 02:00:23;;;;;;;13.83;9.70;;;12.40;99.90;;;;;;4994643;28;20187;-88
2021/09/01 02:02:49;;;;;;;11.43;8.30;;;12.40;99.90;;;;;;4994625;28;20174;-88
2021/09/01 02:05:15;;;;;;;10.37;8.53;;;12.30;99.90;;;;;;4994556;28;20233;-88
2021/09/01 02:07:41;;;;;;;10.57;8.37;;;12.30;99.90;;;;;;4994704;28;20546;-88
2021/09/01 02:10:08;;;;;;;10.70;7.77;;;12.20;99.90;;;;;;4994601;28;20202;-88
2021/09/01 02:12:35;;;;;;;10.53;7.70;;;12.20;99.90;;;;;;4995597;28;20516;-88
2021/09/01 02:15:02;;;;;;;11.17;8.30;;;12.20;99.90;;;;;;4994405;28;20207;-88
2021/09/01 02:17:28;;;;;;;9.87;7.93;;;12.20;99.90;;;;;;4994268;28;20210;-88
2021/09/01 02:19:54;;;;;;;9.03;7.47;;;12.20;99.90;;;;;;4994109;28;20199;-88
2021/09/01 02:22:20;;;;;;;9.93;7.83;;;12.20;99.90;;;;;;4994439;28;20173;-87
2021/09/01 02:24:46;;;;;;;9.47;7.17;;;12.10;99.90;;;;;;4994469;28;20189;-88
2021/09/01 02:27:11;;;;;;;8.13;6.93;;;12.00;99.90;;;;;;4995538;28;20184;-88
2021/09/01 02:29:37;;;;;;;10.23;7.63;;;12.00;99.90;;;;;;4994393;28;20206;-88
2021/09/01 02:32:04;;;;;;;8.17;7.07;;;11.90;99.90;;;;;;4995456;28;20669;-88
2021/09/01 02:34:29;;;;;;;10.20;7.23;;;11.90;99.90;;;;;;4993855;28;20211;-88
2021/09/01 02:36:56;;;;;;;7.50;6.60;;;11.80;99.90;;;;;;4994391;28;20241;-88
2021/09/01 02:39:21;;;;;;;7.97;6.60;;;11.80;99.90;;;;;;4994178;28;20224;-88
2021/09/01 02:41:47;;;;;;;7.83;7.03;;;11.80;99.90;;;;;;4994360;28;20176;-88
2021/09/01 02:44:13;;;;;;;12.67;6.73;;;11.70;99.90;;;;;;4994347;28;20190;-88
2021/09/01 02:46:39;;;;;;;9.27;6.80;;;11.70;99.90;;;;;;4995347;28;20253;-88
2021/09/01 02:49:04;;;;;;;8.10;6.70;;;11.70;99.90;;;;;;4995583;28;20241;-88
2021/09/01 02:51:30;;;;;;;7.80;6.13;;;11.70;99.90;;;;;;4996287;28;20203;-88
2021/09/01 02:53:55;;;;;;;6.90;6.17;;;11.60;99.90;;;;;;4997207;28;20228;-88
2021/09/01 02:56:21;;;;;;;6.87;5.83;;;11.60;99.90;;;;;;5000223;28;20179;-88
2021/09/01 02:58:47;;;;;;;7.53;6.27;;;11.60;99.90;;;;;;5002349;28;20193;-88
2021/09/01 03:01:13;;;;;;;7.27;6.13;;;11.50;99.90;;;;;;4999979;28;20682;-88
2021/09/01 03:03:39;;;;;;;7.07;6.03;;;11.50;99.90;;;;;;5001304;28;20199;-89
2021/09/01 03:06:05;;;;;;;6.93;5.27;;;11.40;99.90;;;;;;5002153;28;20187;-89
2021/09/01 03:08:30;;;;;;;7.20;5.93;;;11.40;99.90;;;;;;5001855;28;20201;-89
2021/09/01 03:10:56;;;;;;;6.33;5.60;;;11.40;99.90;;;;;;4998516;28;20548;-88
2021/09/01 03:13:22;;;;;;;6.60;5.90;;;11.40;99.90;;;;;;5000583;28;20666;-88
2021/09/01 03:15:48;;;;;;;6.63;5.83;;;11.40;99.90;;;;;;4998394;28;20581;-88
2021/09/01 03:18:14;;;;;;;7.93;5.47;;;11.30;99.90;;;;;;5008321;28;20227;-88
2021/09/01 03:20:39;;;;;;;7.73;6.37;;;11.30;99.90;;;;;;5012069;28;20188;-88
2021/09/01 03:23:05;;;;;;;7.00;5.87;;;11.20;99.90;;;;;;5015710;28;20633;-89
2021/09/01 03:25:31;;;;;;;6.90;5.77;;;11.20;99.90;;;;;;5016296;28;20179;-88
2021/09/01 03:27:59;;;;;;;7.57;5.97;;;11.20;99.90;;;;;;4999642;28;20294;-89
2021/09/01 03:30:26;;;;;;;6.13;5.50;;;11.20;99.90;;;;;;4997255;28;20179;-89
2021/09/01 03:32:51;;;;;;;6.27;5.60;;;11.20;99.90;;;;;;4998324;28;20269;-88
2021/09/01 03:35:17;;;;;;;7.13;6.03;;;11.20;99.90;;;;;;4997228;28;20252;-89
2021/09/01 03:37:43;;;;;;;7.57;6.37;;;11.10;99.90;;;;;;4998190;28;20179;-89
2021/09/01 03:40:09;;;;;;;7.40;6.00;;;11.10;99.90;;;;;;4997190;28;20204;-89
2021/09/01 03:42:35;;;;;;;10.10;6.00;;;11.00;99.90;;;;;;5000918;28;20187;-89
2021/09/01 03:45:00;;;;;;;7.33;6.37;;;11.00;99.90;;;;;;5006810;28;20188;-88
2021/09/01 03:47:26;;;;;;;7.33;6.00;;;11.00;99.90;;;;;;4997403;28;20660;-89
2021/09/01 03:49:52;;;;;;;6.93;5.90;;;11.00;99.90;;;;;;4998076;28;20199;-89
2021/09/01 03:52:17;;;;;;;7.00;6.07;;;11.00;99.90;;;;;;4998071;28;20262;-88
2021/09/01 03:54:43;;;;;;;7.53;5.90;;;11.00;99.90;;;;;;4997073;28;20218;-89
2021/09/01 03:57:09;;;;;;;7.67;5.97;;;11.00;99.90;;;;;;4998089;28;20571;-88
2021/09/01 03:59:34;;;;;;;8.90;6.50;;;11.00;99.90;;;;;;4998462;28;20192;-89
2021/09/01 04:02:00;;;;;;;8.33;6.70;;;11.00;99.90;;;;;;4998252;28;20191;-88
2021/09/01 04:04:25;;;;;;;7.83;6.43;;;10.90;99.90;;;;;;4998040;28;20593;-88
2021/09/01 04:06:51;;;;;;;6.17;5.57;;;10.90;99.90;;;;;;4996943;28;20180;-88
2021/09/01 04:09:17;;;;;;;6.40;5.47;;;10.80;99.90;;;;;;4997662;28;20203;-88
2021/09/01 04:11:42;;;;;;;6.87;6.10;;;10.80;99.90;;;;;;4996569;28;20650;-88
2021/09/01 04:14:08;;;;;;;8.33;6.00;;;10.80;99.90;;;;;;4997558;28;20286;-88
2021/09/01 04:16:34;;;;;;;7.73;6.17;;;10.70;99.90;;;;;;4997944;28;20176;-89
2021/09/01 04:18:59;;;;;;;9.50;5.77;;;10.80;99.90;;;;;;4997997;28;20231;-88
2021/09/01 04:21:25;;;;;;;7.07;6.03;;;10.70;99.90;;;;;;4998197;28;20171;-89
2021/09/01 04:23:51;;;;;;;7.10;6.10;;;10.70;99.90;;;;;;4996636;28;20183;-88
2021/09/01 04:26:16;;;;;;;9.70;5.60;;;10.70;99.90;;;;;;4997016;28;20183;-88
2021/09/01 04:28:42;;;;;;;8.83;5.47;;;10.60;99.90;;;;;;4998252;28;20661;-88
2021/09/01 04:31:08;;;;;;;15.37;6.20;;;10.60;99.90;;;;;;4998458;28;20175;-89
2021/09/01 04:33:33;;;;;;;6.20;5.53;;;10.50;99.90;;;;;;4997227;28;20175;-88
2021/09/01 04:36:00;;;;;;;8.97;5.53;;;10.50;99.90;;;;;;4996912;28;20750;-88
2021/09/01 04:38:25;;;;;;;7.07;5.10;;;10.50;99.90;;;;;;4999525;28;20241;-88
2021/09/01 04:40:51;;;;;;;6.10;5.50;;;10.40;99.90;;;;;;4996259;28;20176;-88
2021/09/01 04:43:17;;;;;;;5.93;5.00;;;10.30;99.90;;;;;;4996052;28;20198;-89
2021/09/01 04:45:42;;;;;;;6.43;5.23;;;10.30;99.90;;;;;;4997999;28;20535;-88
2021/09/01 04:48:08;;;;;;;5.63;4.83;;;10.30;99.90;;;;;;4996517;28;20250;-88
2021/09/01 04:50:33;;;;;;;5.83;4.90;;;10.30;99.90;;;;;;4998301;28;20192;-88
2021/09/01 04:52:59;;;;;;;6.73;4.63;;;10.30;99.90;;;;;;4998388;28;20172;-88
2021/09/01 04:55:25;;;;;;;6.13;4.60;;;10.30;99.90;;;;;;4997581;28;20523;-89
2021/09/01 04:57:50;;;;;;;5.20;4.50;;;10.30;99.90;;;;;;4998051;28;20274;-88
2021/09/01 05:00:16;;;;;;;5.70;4.90;;;10.20;99.90;;;;;;5005230;28;20183;-87
2021/09/01 05:02:42;;;;;;;5.97;4.73;;;10.30;99.90;;;;;;5013945;28;20207;-87
2021/09/01 05:05:08;;;;;;;5.00;4.50;;;10.20;99.90;;;;;;5004911;28;20183;-88
2021/09/01 05:07:34;;;;;;;7.10;5.03;;;10.20;99.90;;;;;;5005951;28;20246;-88
2021/09/01 05:10:00;;;;;;;6.67;5.00;;;10.20;99.90;;;;;;4999072;28;20682;-88
2021/09/01 05:12:27;;;;;;;5.10;4.60;;;10.20;99.90;;;;;;4998933;28;20192;-88
2021/09/01 05:14:56;;;;;;;6.07;5.40;;;10.20;99.90;;;;;;4999490;28;20692;-89
2021/09/01 05:17:22;;;;;;;6.47;4.83;;;10.20;99.90;;;;;;4998291;28;20174;-90
2021/09/01 05:20:10;;;;;;;6.50;5.60;;;10.20;99.90;;;;;;4994977;28;20286;-90
2021/09/01 05:22:37;;;;;;;6.83;5.10;;;10.20;99.90;;;;;;4996078;28;20191;-89
2021/09/01 05:25:08;;;;;;;6.67;5.20;;;10.20;99.90;;;;;;4995841;28;20192;-89
2021/09/01 05:27:39;;;;;;;5.83;5.20;;;10.20;99.90;;;;;;4995995;28;20198;-89
2021/09/01 05:30:08;;;;;;;7.10;5.13;;;10.20;99.90;;;;;;4996336;28;20573;-91
2021/09/01 05:32:38;;;;;;;7.03;5.97;;;10.30;99.90;;;;;;4995893;28;20184;-89
2021/09/01 05:35:06;;;;;;;7.03;6.33;;;10.30;99.90;;;;;;4995639;28;20212;-89
2021/09/01 05:37:33;;;;;;;6.33;5.70;;;10.40;99.90;;;;;;4996118;28;20184;-90
2021/09/01 05:40:01;;;;;;;6.80;5.53;;;10.40;99.90;;;;;;4995868;28;20243;-90
2021/09/01 05:42:28;;;;;;;7.50;6.70;;;10.40;99.90;;;;;;4995679;28;20184;-90
2021/09/01 05:44:56;;;;;;;7.00;6.00;;;10.50;99.90;;;;;;4995546;28;20191;-90
2021/09/01 05:47:23;;;;;;;8.63;6.57;;;10.60;99.90;;;;;;4995282;28;20207;-90
2021/09/01 05:49:50;;;;;;;6.50;5.47;;;10.60;99.90;;;;;;4995023;28;20200;-89
2021/09/01 05:52:17;;;;;;;7.60;6.37;;;10.60;99.90;;;;;;4995115;28;20191;-90
2021/09/01 05:54:45;;;;;;;8.10;6.53;;;10.60;99.90;;;;;;4995783;28;20211;-90
2021/09/01 05:57:32;;;;;;;7.80;6.13;;;10.70;99.90;;;;;;4996023;28;20182;-90
2021/09/01 06:00:13;;;;;;;7.40;6.20;;;10.70;99.90;;;;;;4996597;28;20206;-89
2021/09/01 06:03:00;;;;;;;8.37;6.83;;;10.80;99.90;;;;;;4998585;28;20265;-90
2021/09/01 06:05:28;;;;;;;7.93;6.37;;;10.80;99.90;;;;;;5006839;28;20194;-89
2021/09/01 06:07:56;;;;;;;8.87;7.33;;;10.90;99.90;;;;;;4995673;28;20184;-88
2021/09/01 06:10:28;;;;;;;9.13;6.53;;;10.90;99.90;;;;;;4996074;28;20191;-88
2021/09/01 06:12:55;;;;;;;8.57;7.27;;;11.00;99.90;;;;;;4996201;28;20240;-91
2021/09/01 06:15:22;;;;;;;9.33;7.00;;;11.00;99.90;;;;;;4996525;28;20613;-90
2021/09/01 06:17:47;;;;;;;11.07;7.30;;;11.10;99.90;;;;;;4997060;28;20180;-88
2021/09/01 06:20:13;;;;;;;9.23;7.23;;;11.10;99.90;;;;;;4996066;28;20248;-89
2021/09/01 06:22:42;;;;;;;9.17;6.97;;;11.20;99.90;;;;;;4995441;28;20185;-91
2021/09/01 06:25:08;;;;;;;8.80;7.30;;;11.30;99.90;;;;;;4996030;28;20199;-90
2021/09/01 06:27:34;;;;;;;10.47;7.17;;;11.30;99.90;;;;;;4996400;28;20247;-90
2021/09/01 06:30:00;;;;;;;10.67;6.40;;;11.40;99.90;;;;;;4995816;28;20210;-90
2021/09/01 06:32:26;;;;;;;9.13;6.97;;;11.50;99.90;;;;;;4999751;28;20211;-90
2021/09/01 06:34:52;;;;;;;13.23;8.83;;;11.50;99.90;;;;;;4999438;28;20411;-91
2021/09/01 06:37:17;;;;;;;9.47;7.83;;;11.60;99.90;;;;;;4999802;28;20184;-90
2021/09/01 06:39:43;;;;;;;11.10;7.27;;;11.60;99.90;;;;;;5000388;28;20392;-90
2021/09/01 06:42:09;;;;;;;10.23;8.30;;;11.70;99.90;;;;;;4999972;28;20188;-90
2021/09/01 06:44:35;;;;;;;10.67;7.90;;;11.70;99.90;;;;;;5010330;28;20191;-87
2021/09/01 06:47:00;;;;;;;14.87;8.37;;;11.80;99.90;;;;;;5021529;28;20194;-88
2021/09/01 06:49:26;;;;;;;11.00;8.30;;;11.90;99.90;;;;;;5013640;28;20226;-89
2021/09/01 06:51:52;;;;;;;12.03;7.77;;;12.00;99.90;;;;;;4998935;28;20199;-88
2021/09/01 06:54:17;;;;;;;11.73;8.17;;;12.00;99.90;;;;;;4998812;28;20677;-88
2021/09/01 06:56:43;;;;;;;10.07;6.80;;;12.10;99.90;;;;;;4998881;28;20183;-88
2021/09/01 06:59:09;;;;;;;11.10;7.67;;;12.20;99.90;;;;;;5000156;28;20195;-89
2021/09/01 07:01:35;;;;;;;12.33;8.63;;;12.30;99.90;;;;;;5000498;28;20845;-88
2021/09/01 07:04:00;;;;;;;12.63;9.50;;;12.40;99.90;;;;;;5000273;28;20303;-88
2021/09/01 07:06:26;;;;;;;11.70;9.87;;;12.50;99.90;;;;;;5006431;28;20186;-88
2021/09/01 07:08:51;;;;;;;15.40;10.20;;;12.60;99.90;;;;;;4999142;28;20297;-88
2021/09/01 07:11:17;;;;;;;14.70;10.37;;;12.70;99.90;;;;;;4998733;28;20181;-88
2021/09/01 07:13:43;;;;;;;13.00;10.93;;;12.80;99.90;;;;;;5001480;28;20230;-88
2021/09/01 07:16:11;;;;;;;12.50;9.67;;;13.00;99.90;;;;;;5000772;28;20220;-88
2021/09/01 07:18:37;;;;;;;15.13;9.33;;;13.10;99.90;;;;;;5001433;28;20254;-88
2021/09/01 07:21:03;;;;;;;12.30;10.20;;;13.20;99.90;;;;;;5002366;28;20183;-88
2021/09/01 07:23:29;;;;;;;15.13;11.27;;;13.30;99.90;;;;;;5003907;28;20179;-88
2021/09/01 07:25:55;;;;;;;14.77;10.10;;;13.40;99.90;;;;;;4999793;28;20224;-89
2021/09/01 07:28:20;;;;;;;12.80;9.57;;;13.50;99.90;;;;;;4998667;28;20210;-89
2021/09/01 07:30:46;;;;;;;13.17;10.07;;;13.70;99.90;;;;;;4999905;28;20186;-88
2021/09/01 07:33:11;;;;;;;13.53;10.33;;;13.80;99.90;;;;;;4998676;28;20654;-89
2021/09/01 07:35:37;;;;;;;14.23;10.00;;;13.90;99.90;;;;;;4998295;28;20218;-89
2021/09/01 07:38:03;;;;;;;15.57;9.53;;;14.10;99.90;;;;;;4999426;28;20564;-88
2021/09/01 07:40:29;;;;;;;11.87;8.57;;;14.30;99.90;;;;;;4998438;28;20777;-89
2021/09/01 07:42:55;;;;;;;13.90;9.73;;;14.50;99.90;;;;;;4998737;28;20618;-89
2021/09/01 07:45:21;;;;;;;11.83;8.57;;;14.70;99.90;;;;;;5003741;28;20676;-88
2021/09/01 07:47:52;;;;;;;13.60;8.93;;;14.80;99.90;;;;;;4997764;28;20218;-88
2021/09/01 07:50:20;;;;;;;9.97;7.50;;;14.90;99.90;;;;;;4998954;28;20267;-88
2021/09/01 07:52:46;;;;;;;10.07;7.67;;;14.90;99.90;;;;;;4997626;28;20183;-89
2021/09/01 07:55:12;;;;;;;8.30;7.40;;;14.90;99.90;;;;;;4997824;28;20242;-88
2021/09/01 07:57:38;;;;;;;9.27;8.20;;;15.00;99.90;;;;;;4997835;28;20176;-89
2021/09/01 08:00:06;;;;;;;9.43;7.90;;;15.00;99.90;;;;;;4997331;28;20313;-88
2021/09/01 08:02:32;;;;;;;9.33;8.10;;;15.20;99.90;;;;;;4998705;28;20254;-88
2021/09/01 08:04:57;;;;;;;9.73;7.27;;;15.40;99.90;;;;;;4997676;28;20266;-88
2021/09/01 08:07:23;;;;;;;10.30;7.60;;;15.40;99.90;;;;;;4997150;28;20175;-89
2021/09/01 08:09:49;;;;;;;10.73;8.10;;;15.60;99.90;;;;;;4997234;28;20606;-88
2021/09/01 08:12:14;;;;;;;10.13;7.07;;;15.80;99.90;;;;;;4998295;28;20186;-88
2021/09/01 08:14:40;;;;;;;8.37;7.07;;;16.10;99.90;;;;;;4997443;28;20207;-88
2021/09/01 08:17:06;;;;;;;8.60;7.03;;;16.30;99.90;;;;;;4997956;28;20183;-89
2021/09/01 08:19:31;;;;;;;8.67;7.40;;;16.60;99.90;;;;;;4998295;28;20614;-87
2021/09/01 08:21:57;;;;;;;8.10;6.70;;;16.80;99.90;;;;;;5000515;28;20202;-87
2021/09/01 08:24:23;;;;;;;10.30;7.00;;;17.00;99.90;;;;;;5016813;28;20206;-86
2021/09/01 08:26:48;;;;;;;7.53;6.73;;;17.10;99.90;;;;;;5017711;28;20171;-86
2021/09/01 08:29:14;;;;;;;11.20;7.30;;;17.20;99.90;;;;;;5003048;28;20207;-87
2021/09/01 08:31:40;;;;;;;9.47;7.47;;;17.20;99.90;;;;;;4997348;28;20183;-87
2021/09/01 08:34:05;;;;;;;8.70;7.33;;;17.10;99.90;;;;;;4997608;28;20723;-87
2021/09/01 08:36:31;;;;;;;8.23;6.77;;;16.90;99.90;;;;;;4997979;28;20175;-86
2021/09/01 08:38:56;;;;;;;10.17;6.57;;;16.70;99.90;;;;;;4996829;28;20545;-87
2021/09/01 08:41:22;;;;;;;8.70;6.90;;;16.60;99.90;;;;;;4998031;28;20234;-87
2021/09/01 08:43:48;;;;;;;7.23;6.53;;;16.70;99.90;;;;;;4997138;28;20179;-87
2021/09/01 08:46:14;;;;;;;7.00;6.10;;;16.90;99.90;;;;;;4997126;28;20658;-87
2021/09/01 08:48:41;;;;;;;5.90;5.37;;;17.20;99.90;;;;;;4996429;28;20682;-87
2021/09/01 08:51:10;;;;;;;7.97;6.17;;;17.30;99.90;;;;;;4996444;28;20185;-87
2021/09/01 08:53:38;;;;;;;7.90;6.47;;;17.20;99.90;;;;;;4995755;28;20600;-87
2021/09/01 08:56:04;;;;;;;8.60;6.47;;;17.20;99.90;;;;;;4997125;28;20200;-86
2021/09/01 08:58:29;;;;;;;7.40;5.77;;;17.30;99.90;;;;;;4997584;28;20203;-87
2021/09/01 09:00:55;;;;;;;7.20;6.40;;;17.30;99.90;;;;;;4997360;28;20180;-86
2021/09/01 09:03:21;;;;;;;7.30;5.13;;;17.50;99.90;;;;;;4998514;28;20188;-86
2021/09/01 09:05:47;;;;;;;5.90;5.27;;;17.80;99.90;;;;;;5001592;28;20204;-86
2021/09/01 09:08:14;;;;;;;6.10;5.50;;;17.80;99.90;;;;;;5002059;28;20219;-86
2021/09/01 09:10:45;;;;;;;7.63;5.63;;;17.70;99.90;;;;;;5003321;28;20180;-86
2021/09/01 09:13:12;;;;;;;9.13;5.40;;;17.90;99.90;;;;;;4998199;28;20165;-86
2021/09/01 09:15:40;;;;;;;5.33;4.83;;;18.20;99.90;;;;;;4997941;28;20211;-86
2021/09/01 09:18:30;;;;;;;6.43;5.17;;;18.60;99.90;;;;;;4998391;28;20177;-86
2021/09/01 09:21:13;;;;;;;6.60;4.87;;;19.00;99.90;;;;;;4998882;28;20165;-86
2021/09/01 09:23:39;;;;;;;7.10;5.43;;;19.30;99.90;;;;;;4999631;28;20179;-86
2021/09/01 09:26:26;;;;;;;5.53;4.60;;;19.50;99.90;;;;;;4999709;28;20243;-84
2021/09/01 09:29:24;;;;;;;5.43;4.80;;;19.60;99.90;;;;;;5001638;28;20273;-83
2021/09/01 09:32:01;;;;;;;5.27;4.43;;;19.80;99.90;;;;;;4989898;28;20201;-84
2021/09/01 09:34:42;;;;;;;6.30;5.03;;;20.00;99.90;;;;;;5002736;28;20205;-86
2021/09/01 09:37:13;;;;;;;5.67;4.60;;;20.00;99.90;;;;;;4984580;28;20154;-86
2021/09/01 09:39:56;;;;;;;4.77;4.23;;;20.00;99.90;;;;;;4983391;28;20291;-86
2021/09/01 09:42:30;;;;;;;5.37;4.63;;;19.70;99.90;;;;;;4985119;28;20180;-86
2021/09/01 09:44:56;;;;;;;4.77;4.27;;;19.40;99.90;;;;;;5013348;28;20262;-85
2021/09/01 09:47:44;;;;;;;4.57;4.17;;;19.50;99.90;;;;;;5013903;28;20181;-86
2021/09/01 09:50:10;;;;;;;4.70;3.83;;;19.80;99.90;;;;;;5005342;28;20199;-85
2021/09/01 09:52:36;;;;;;;4.00;3.60;;;20.20;99.90;;;;;;5015485;28;20183;-86
2021/09/01 09:55:12;;;;;;;4.40;3.57;;;20.50;99.90;;;;;;5015963;28;20300;-85
2021/09/01 09:58:00;;;;;;;3.90;3.47;;;21.20;99.90;;;;;;5014872;28;20163;-85
2021/09/01 10:00:27;;;;;;;3.93;3.53;;;21.20;99.90;;;;;;5016722;28;20217;-87
2021/09/01 10:02:53;;;;;;;6.40;3.87;;;21.30;99.90;;;;;;4997023;28;20214;-85
2021/09/01 10:05:28;;;;;;;4.67;3.53;;;21.40;99.90;;;;;;4998359;28;20180;-85
2021/09/01 10:07:57;;;;;;;4.53;3.40;;;21.10;99.90;;;;;;4999514;28;20171;-85
2021/09/01 10:10:23;;;;;;;3.67;3.37;;;20.70;99.90;;;;;;4997810;28;20183;-84
2021/09/01 10:12:49;;;;;;;3.67;3.33;;;20.60;99.90;;;;;;4999189;28;20229;-86
2021/09/01 10:15:27;;;;;;;4.60;3.40;;;20.90;99.90;;;;;;4998358;28;20253;-86
2021/09/01 10:18:05;;;;;;;7.47;2.97;;;21.20;99.90;;;;;;5000119;28;20195;-85
2021/09/01 10:20:32;;;;;;;3.73;3.27;;;21.50;99.90;;;;;;4998137;28;20172;-84
2021/09/01 10:23:04;;;;;;;4.83;3.27;;;21.70;99.90;;;;;;4996754;28;20203;-86
2021/09/01 10:25:36;;;;;;;3.97;2.97;;;21.90;99.90;;;;;;4998749;28;20175;-85
2021/09/01 10:28:21;;;;;;;7.07;3.50;;;22.10;99.90;;;;;;4997988;28;20190;-85
2021/09/01 10:31:08;;;;;;;4.13;3.40;;;22.20;99.90;;;;;;4996714;28;20257;-86
2021/09/01 10:33:45;;;;;;;4.17;3.70;;;22.10;99.90;;;;;;5000825;28;20190;-86
2021/09/01 10:36:25;;;;;;;4.37;3.50;;;22.00;99.90;;;;;;5000405;28;20654;-85
2021/09/01 10:38:52;;;;;;;6.77;3.77;;;21.70;99.90;;;;;;5000976;28;20191;-86
2021/09/01 10:41:39;;;;;;;4.13;3.73;;;21.00;99.90;;;;;;5000434;28;20750;-85
2021/09/01 10:44:11;;;;;;;4.13;3.53;;;20.50;99.90;;;;;;5000866;28;20176;-84
2021/09/01 10:46:54;;;;;;;3.67;3.37;;;20.10;99.90;;;;;;5001736;28;20180;-85
2021/09/01 10:49:26;;;;;;;3.43;3.10;;;19.80;99.90;;;;;;4999046;28;20543;-85
2021/09/01 10:52:02;;;;;;;4.53;3.53;;;20.20;99.90;;;;;;5000372;28;20227;-85
2021/09/01 10:54:40;;;;;;;5.40;3.57;;;20.30;99.90;;;;;;5002105;28;20210;-86
2021/09/01 10:57:23;;;;;;;3.83;3.40;;;20.10;99.90;;;;;;5001375;28;20178;-85
2021/09/01 10:59:49;;;;;;;4.10;3.70;;;19.80;99.90;;;;;;5000983;28;20199;-85
2021/09/01 11:02:20;;;;;;;5.23;3.80;;;19.40;99.90;;;;;;5000160;28;20207;-85
2021/09/01 11:04:53;;;;;;;4.80;3.40;;;19.70;99.90;;;;;;5000934;28;20650;-86
2021/09/01 11:07:23;;;;;;;5.97;3.23;;;20.20;99.90;;;;;;5003437;28;20195;-86
2021/09/01 11:09:56;;;;;;;3.87;3.30;;;20.80;99.90;;;;;;5004934;28;20208;-85
2021/09/01 11:12:24;;;;;;;5.20;3.47;;;21.50;99.90;;;;;;5001183;28;20183;-85
2021/09/01 11:14:51;;;;;;;3.73;3.37;;;22.00;99.90;;;;;;5000030;28;20197;-87
2021/09/01 11:17:19;;;;;;;4.97;3.73;;;22.40;99.90;;;;;;4997566;28;20543;-86
2021/09/01 11:19:47;;;;;;;5.90;3.60;;;22.80;99.90;;;;;;5000542;28;20676;-84
2021/09/01 11:22:18;;;;;;;3.83;3.33;;;23.10;99.90;;;;;;5002507;28;20180;-84
2021/09/01 11:24:48;;;;;;;3.53;3.23;;;23.30;99.90;;;;;;5005426;28;20352;-84
2021/09/01 11:27:16;;;;;;;4.27;3.27;;;23.50;99.90;;;;;;5003808;28;20197;-85
2021/09/01 11:29:42;;;;;;;3.80;3.40;;;23.50;99.90;;;;;;5000592;28;20202;-85
2021/09/01 11:32:12;;;;;;;6.13;3.37;;;23.80;99.90;;;;;;4995002;28;20654;-84
2021/09/01 11:34:38;;;;;;;3.33;2.93;;;23.90;99.90;;;;;;5005591;28;20573;-84
2021/09/01 11:37:04;;;;;;;8.07;3.33;;;24.00;99.90;;;;;;5004291;28;20190;-85
2021/09/01 11:39:30;;;;;;;6.10;3.37;;;24.10;99.90;;;;;;5004233;28;20626;-87
2021/09/01 11:42:01;;;;;;;4.10;3.67;;;23.70;99.90;;;;;;5002239;28;20202;-86
2021/09/01 11:44:27;;;;;;;3.80;3.40;;;23.60;99.90;;;;;;5002717;28;20178;-84
2021/09/01 11:46:53;;;;;;;4.23;3.10;;;23.70;99.90;;;;;;5003074;28;20188;-85
2021/09/01 11:49:19;;;;;;;3.60;3.30;;;23.00;99.90;;;;;;5002573;28;20300;-86
2021/09/01 11:51:47;;;;;;;5.90;3.10;;;22.20;99.90;;;;;;5000848;28;20180;-86
2021/09/01 11:54:14;;;;;;;4.07;3.00;;;22.10;99.90;;;;;;4998629;28;20190;-89
2021/09/01 11:56:40;;;;;;;5.33;3.13;;;22.50;99.90;;;;;;4998592;28;20179;-87
2021/09/01 11:59:08;;;;;;;6.37;3.40;;;23.00;99.90;;;;;;5001487;28;20196;-86
2021/09/01 12:01:58;;;;;;;4.43;3.27;;;23.50;99.90;;;;;;5002689;28;20175;-86
2021/09/01 12:04:25;;;;;;;4.70;2.90;;;23.90;99.90;;;;;;4997318;28;20254;-87
2021/09/01 12:06:55;;;;;;;3.57;2.80;;;24.20;99.90;;;;;;5004343;28;20188;-87
2021/09/01 12:09:23;;;;;;;3.33;3.03;;;24.50;99.90;;;;;;5005505;28;20194;-87
2021/09/01 12:12:00;;;;;;;3.03;2.73;;;24.60;99.90;;;;;;5000773;28;20166;-86
2021/09/01 12:14:31;;;;;;;3.20;2.90;;;24.80;99.90;;;;;;4998193;28;20580;-87
2021/09/01 12:17:25;;;;;;;3.23;2.93;;;24.90;99.90;;;;;;4997755;28;20172;-87
2021/09/01 12:19:56;;;;;;;3.30;2.93;;;25.10;99.90;;;;;;4997815;28;20206;-88
2021/09/01 12:22:41;;;;;;;3.90;2.70;;;25.10;99.90;;;;;;4998770;28;20637;-86
2021/09/01 12:25:20;;;;;;;3.73;2.80;;;24.90;99.90;;;;;;4997334;28;20210;-87
2021/09/01 12:28:08;;;;;;;6.17;3.07;;;24.90;99.90;;;;;;4997556;28;20225;-86
2021/09/01 12:30:36;;;;;;;4.60;2.97;;;25.00;99.90;;;;;;4996919;28;20176;-86
2021/09/01 12:33:04;;;;;;;3.43;2.73;;;25.20;99.90;;;;;;4997324;28;20644;-87
2021/09/01 12:35:32;;;;;;;7.57;2.73;;;25.10;99.90;;;;;;4979066;28;20255;-86
2021/09/01 12:38:01;;;;;;;6.17;3.27;;;25.10;99.90;;;;;;4985577;28;20182;-87
2021/09/01 12:40:38;;;;;;;6.83;3.00;;;25.10;99.90;;;;;;5000364;28;20196;-88
2021/09/01 12:43:07;;;;;;;4.40;3.03;;;25.10;99.90;;;;;;4998361;28;20181;-86
2021/09/01 12:45:35;;;;;;;4.43;3.20;;;24.80;99.90;;;;;;4998089;28;20199;-88
2021/09/01 12:48:03;;;;;;;6.83;3.47;;;24.60;99.90;;;;;;4997345;28;20183;-86
2021/09/01 12:50:31;;;;;;;3.67;3.37;;;24.40;99.90;;;;;;4998122;28;20172;-88